Perronville, MI

10:06 AM CST on December 07, 2016 (GMT -0600)
Delta County | | Change Station

Elev 607 ft 45.72 °N, 87.09 °W | Updated 6 hours ago

Cloudy
Cloudy
24 °F
Feels Like 12 °F
N
15
Wind Variable Wind from WSW
Gusts 21 mph

Today
High -- | Low -- °F
--% Chance of Precip.
Yesterday
High -- | Low -- °F
Precip. -- in
Pressure 29.82 in
Visibility 9.0 miles
Clouds Overcast 3000 ft
Windchill 12 °F
Dew Point 14 °F
Humidity 63%
Rainfall 0.00 in
Snow Depth Not available.
7:18 AM 4:05 PM
First Quarter, 53% visible
METAR KESC 070956Z AUTO 24009G19KT 9SM -SN OVC030 M03/M09 A2974 RMK AO2 SNB16 SLP096 P0000 T10331089 FZRANO
Pressure 29.82 in
Visibility 9.0 miles
Clouds Overcast 3000 ft
Windchill 12 °F
Dew Point 14 °F
Humidity 63%
Rainfall 0.00 in
Snow Depth Not available.
7:18 AM 4:05 PM
First Quarter, 53% visible
METAR KESC 070956Z AUTO 24009G19KT 9SM -SN OVC030 M03/M09 A2974 RMK AO2 SNB16 SLP096 P0000 T10331089 FZRANO

10-Day Weather Forecast

Almanac

Astronomy

Dec. 07, 2016 Rise Set
Actual Time
Civil Twilight
Nautical Twilight
Astronomical Twilight
Moon
Length of Visible Light
Length of Day
Tomorrow will be .
, % of the Moon is Illuminated

Today's Extremes

State Highs State Lows

Community

WunderPhotos

Upload Photos

1,956,129 photos uploaded!

WunderBlog® & News

Nearby

Air Quality

  Air Quality AQ Index Pollutant
Not available.

Snow Depth

Station Depth Elevation

Earthquake Activity

City Distance Mag. Time & Date
Minimum magnitude displayed is 2.5.

Coastal Water Temperatures

Place Temperature

Stations

Nearby Weather Stations

Station Location Temp. Windchill Dew Point Humidity Wind Precip. Elev Updated Type
                   

Watches & Warnings

There are currently no watches in effect.